createdAt,value
2019-01-10T04:58:40.691Z,4.27
2019-01-10T05:03:47.465Z,4.53
2019-01-10T05:08:53.376Z,4.35
2019-01-10T05:13:59.339Z,4.19
2019-01-10T05:19:04.913Z,4.33
2019-01-10T05:24:10.834Z,4.37
2019-01-10T05:29:16.448Z,4.87
2019-01-10T05:34:23.011Z,4.45
2019-01-10T05:39:29.360Z,4.80
2019-01-10T05:44:35.313Z,4.92
2019-01-10T05:49:41.704Z,4.62
2019-01-10T05:54:47.928Z,4.42
2019-01-10T05:59:53.983Z,4.90
2019-01-10T06:05:00.174Z,5.03
2019-01-10T06:10:08.896Z,5.40
2019-01-10T06:15:15.932Z,4.43
2019-01-10T06:20:24.009Z,4.43
2019-01-10T06:25:30.394Z,4.72
2019-01-10T06:30:36.224Z,5.19
2019-01-10T06:35:41.923Z,4.91
2019-01-10T06:40:49.574Z,5.09
2019-01-10T06:45:55.651Z,4.98
2019-01-10T06:51:02.268Z,4.58
2019-01-10T06:56:09.184Z,4.91
2019-01-10T07:01:15.211Z,5.04
2019-01-10T07:06:22.314Z,5.47
2019-01-10T07:11:28.051Z,5.42
2019-01-10T07:16:33.880Z,5.16
2019-01-10T07:21:41.926Z,5.19
2019-01-10T07:26:50.113Z,5.41
2019-01-10T07:31:59.339Z,4.77
2019-01-10T07:37:12.735Z,4.59
2019-01-10T07:42:13.075Z,4.82
2019-01-10T07:47:19.517Z,4.91
2019-01-10T07:52:25.640Z,4.81
2019-01-10T07:57:31.702Z,5.21
2019-01-10T08:02:37.327Z,4.95
2019-01-10T08:07:43.193Z,5.34
2019-01-10T08:12:49.548Z,5.08
2019-01-10T08:17:55.528Z,5.27
2019-01-10T08:23:01.270Z,5.60
2019-01-10T08:28:06.940Z,5.58
2019-01-10T08:33:13.567Z,5.02
2019-01-10T08:38:20.808Z,5.26
2019-01-10T08:43:26.388Z,4.93
2019-01-10T08:48:32.332Z,4.91
2019-01-10T08:53:39.919Z,5.37
2019-01-10T08:58:45.970Z,5.35
2019-01-10T09:03:51.681Z,5.46
2019-01-10T09:08:57.555Z,5.42
2019-01-10T09:14:04.860Z,5.38
2019-01-10T09:19:11.836Z,5.18
2019-01-10T09:24:18.828Z,5.78
2019-01-10T09:29:26.960Z,4.42
2019-01-10T09:34:33.055Z,5.19
2019-01-10T09:39:39.105Z,5.39
2019-01-10T09:44:45.525Z,4.43
2019-01-10T09:49:51.997Z,5.03
2019-01-10T09:54:57.591Z,4.95
2019-01-10T10:00:07.671Z,4.49
2019-01-10T10:05:14.571Z,3.97
2019-01-10T10:10:21.408Z,4.49
2019-01-10T10:15:28.550Z,5.20
2019-01-10T10:20:34.721Z,5.52
2019-01-10T10:25:41.365Z,5.29
2019-01-10T10:30:47.701Z,5.29
2019-01-10T10:35:53.806Z,5.39
2019-01-10T10:41:01.065Z,5.64
2019-01-10T10:46:06.809Z,6.26
2019-01-10T10:51:13.422Z,6.45
2019-01-10T10:56:20.293Z,5.95
2019-01-10T11:01:26.775Z,5.87
2019-01-10T11:06:33.256Z,6.23
2019-01-10T11:11:40.324Z,5.83
2019-01-10T11:16:47.113Z,5.39
2019-01-10T11:21:54.663Z,5.13
2019-01-10T11:27:03.218Z,5.70
2019-01-10T11:32:13.271Z,6.40
2019-01-10T11:37:19.746Z,5.72
2019-01-10T11:42:26.291Z,5.84
2019-01-10T11:47:33.776Z,5.22
2019-01-10T11:52:40.033Z,5.90
2019-01-10T11:57:48.419Z,6.29
2019-01-10T12:02:54.914Z,6.68
2019-01-10T12:08:01.020Z,6.26
2019-01-10T12:13:07.086Z,5.58
2019-01-10T12:18:14.757Z,5.59
2019-01-10T12:23:22.754Z,6.02
2019-01-10T12:28:28.706Z,6.08
2019-01-10T12:39:29.838Z,7.08
2019-01-10T12:44:36.816Z,6.00
2019-01-10T12:49:44.943Z,5.67
2019-01-10T12:54:53.011Z,5.95
2019-01-10T13:00:00.099Z,5.96
2019-01-10T13:05:11.407Z,5.15
2019-01-10T13:10:20.011Z,4.73
2019-01-10T13:15:30.170Z,5.01
2019-01-10T13:20:38.455Z,5.29
2019-01-10T13:25:47.530Z,4.83
2019-01-10T13:30:55.594Z,5.50
2019-01-10T13:36:02.792Z,4.90
2019-01-10T13:41:11.104Z,4.74
2019-01-10T13:46:19.736Z,4.98
2019-01-10T13:51:26.972Z,4.97
2019-01-10T13:56:34.022Z,5.28
2019-01-10T14:01:41.468Z,4.58
2019-01-10T14:06:49.198Z,4.39
2019-01-10T14:11:56.807Z,3.99
2019-01-10T14:17:04.221Z,4.01
2019-01-10T14:22:12.697Z,3.98
2019-01-10T14:27:20.185Z,3.87
2019-01-10T14:32:27.648Z,3.68
2019-01-10T14:37:34.679Z,4.34
2019-01-10T14:42:42.577Z,4.24
2019-01-10T14:47:50.217Z,3.83
2019-01-10T14:52:58.378Z,4.14
2019-01-10T14:58:07.065Z,4.18
2019-01-10T15:03:12.949Z,4.03
2019-01-10T15:08:20.781Z,3.89
2019-01-10T15:13:27.100Z,3.94
2019-01-10T15:18:33.967Z,3.76
2019-01-10T15:23:40.368Z,3.53
2019-01-10T15:28:46.695Z,3.76
2019-01-10T15:33:53.393Z,3.85
2019-01-10T15:39:00.449Z,3.91
2019-01-10T15:44:07.039Z,3.79
2019-01-10T15:49:13.955Z,4.35
2019-01-10T15:54:20.248Z,4.77
2019-01-10T15:59:27.132Z,5.31
2019-01-10T16:04:34.005Z,5.59
2019-01-10T16:09:44.526Z,5.91
2019-01-10T16:14:52.455Z,5.42
2019-01-10T16:20:00.047Z,5.02
2019-01-10T16:25:11.334Z,4.94
2019-01-10T16:30:24.338Z,4.91
2019-01-10T16:35:31.945Z,4.58
2019-01-10T16:40:39.296Z,4.88
2019-01-10T16:45:46.339Z,4.40
2019-01-10T16:50:53.995Z,4.89
2019-01-10T16:56:03.951Z,3.97
2019-01-10T17:01:11.055Z,3.90
2019-01-10T17:06:18.344Z,4.08
2019-01-10T17:11:28.570Z,4.48
2019-01-10T17:16:36.549Z,5.01
2019-01-10T17:21:44.226Z,4.40
2019-01-10T17:26:51.761Z,4.39
2019-01-10T17:31:58.865Z,4.49
2019-01-10T17:37:06.548Z,4.90
2019-01-10T17:42:15.597Z,4.66
2019-01-10T17:47:21.801Z,4.05
2019-01-10T17:52:28.796Z,3.94
2019-01-10T17:57:37.652Z,3.61
2019-01-10T18:02:45.307Z,3.26
2019-01-10T18:07:52.968Z,3.26
2019-01-10T18:13:00.375Z,3.26
2019-01-10T18:18:08.235Z,3.50
2019-01-10T18:23:17.755Z,3.09
2019-01-10T18:28:24.143Z,3.18
2019-01-10T18:33:34.153Z,3.95
2019-01-10T18:38:41.773Z,3.79
2019-01-10T18:43:48.654Z,3.80
2019-01-10T18:48:57.107Z,3.65
2019-01-10T18:54:06.129Z,3.41
2019-01-10T18:59:13.192Z,3.69
2019-01-10T19:04:23.350Z,3.51
2019-01-10T19:09:30.302Z,3.77
2019-01-10T19:14:36.607Z,4.03
2019-01-10T19:19:44.100Z,3.28
2019-01-10T19:24:51.556Z,3.30
2019-01-10T19:30:00.175Z,3.29
2019-01-10T19:35:09.562Z,3.42
2019-01-10T19:40:19.763Z,3.59
2019-01-10T19:45:27.394Z,4.00
2019-01-10T19:50:34.983Z,3.24
2019-01-10T19:55:41.946Z,4.19
2019-01-10T20:00:49.556Z,3.34
2019-01-10T20:05:56.558Z,4.16
2019-01-10T20:11:04.210Z,4.08
2019-01-10T20:16:15.312Z,3.64
2019-01-10T20:21:23.726Z,3.47
2019-01-10T20:26:30.707Z,3.71
2019-01-10T20:31:38.130Z,4.13
2019-01-10T20:36:46.700Z,4.06
2019-01-10T20:42:01.693Z,3.60
2019-01-10T20:47:04.729Z,3.03
2019-01-10T20:52:11.588Z,2.98
2019-01-10T20:57:19.873Z,2.89
2019-01-10T21:02:26.361Z,3.10
2019-01-10T21:07:33.650Z,3.21
2019-01-10T21:12:40.705Z,2.85
2019-01-10T21:17:49.341Z,3.28
2019-01-10T21:22:56.709Z,3.89
2019-01-10T21:28:02.666Z,4.26
2019-01-10T21:33:09.411Z,3.08
2019-01-10T21:38:16.500Z,3.96
2019-01-10T21:43:23.822Z,4.13
2019-01-10T21:48:35.063Z,4.18
2019-01-10T21:53:40.354Z,3.79
2019-01-10T21:58:46.131Z,3.75
2019-01-10T22:03:52.669Z,3.43
2019-01-10T22:09:03.346Z,3.29
2019-01-10T22:14:10.297Z,3.98
2019-01-10T22:19:16.897Z,3.82
2019-01-10T22:24:22.769Z,3.44
2019-01-10T22:29:29.959Z,3.95
2019-01-10T22:34:37.579Z,3.66
2019-01-10T22:39:43.382Z,3.42
2019-01-10T22:44:50.012Z,3.23
2019-01-10T22:49:56.764Z,3.25
2019-01-10T22:55:03.000Z,3.15
2019-01-10T23:00:18.762Z,3.41
2019-01-10T23:05:25.492Z,2.97
2019-01-10T23:10:33.004Z,3.31
2019-01-10T23:15:41.764Z,2.63
2019-01-10T23:20:55.655Z,2.83
2019-01-10T23:26:01.327Z,2.81
2019-01-10T23:31:09.782Z,2.63
2019-01-10T23:36:15.619Z,2.61
2019-01-10T23:41:21.456Z,3.32
2019-01-10T23:46:27.040Z,2.89
2019-01-10T23:51:32.822Z,2.46
2019-01-10T23:56:38.615Z,2.18
